sensor_id;sensor_type;location;lat;lon;timestamp;pressure;altitude;pressure_sealevel;temperature;humidity
36222;BME280;22266;52.340;4.962;2023-08-01T00:00:04;99829.13;;;17.53;78.78
36222;BME280;22266;52.340;4.962;2023-08-01T00:02:39;99827.22;;;17.54;79.14
36222;BME280;22266;52.340;4.962;2023-08-01T00:05:08;99820.66;;;17.50;79.08
36222;BME280;22266;52.340;4.962;2023-08-01T00:07:35;99820.94;;;17.48;79.12
36222;BME280;22266;52.340;4.962;2023-08-01T00:10:04;99813.59;;;17.49;79.53
36222;BME280;22266;52.340;4.962;2023-08-01T00:12:33;99816.31;;;17.49;79.42
36222;BME280;22266;52.340;4.962;2023-08-01T00:15:00;99805.94;;;17.46;79.52
36222;BME280;22266;52.340;4.962;2023-08-01T00:17:26;99813.59;;;17.49;79.55
36222;BME280;22266;52.340;4.962;2023-08-01T00:19:53;99804.63;;;17.48;79.82
36222;BME280;22266;52.340;4.962;2023-08-01T00:22:22;99810.88;;;17.49;79.64
36222;BME280;22266;52.340;4.962;2023-08-01T00:24:49;99801.09;;;17.48;79.91
36222;BME280;22266;52.340;4.962;2023-08-01T00:27:15;99804.63;;;17.48;80.01
36222;BME280;22266;52.340;4.962;2023-08-01T00:29:42;99793.44;;;17.45;79.98
36222;BME280;22266;52.340;4.962;2023-08-01T00:32:09;99789.63;;;17.41;80.13
36222;BME280;22266;52.340;4.962;2023-08-01T00:34:36;99786.09;;;17.40;80.16
36222;BME280;22266;52.340;4.962;2023-08-01T00:37:02;99782.53;;;17.40;80.02
36222;BME280;22266;52.340;4.962;2023-08-01T00:39:29;99779.53;;;17.41;80.52
36222;BME280;22266;52.340;4.962;2023-08-01T00:41:56;99776.00;;;17.41;80.61
36222;BME280;22266;52.340;4.962;2023-08-01T00:44:22;99770.03;;;17.39;80.45
36222;BME280;22266;52.340;4.962;2023-08-01T00:46:49;99767.56;;;17.37;80.61
36222;BME280;22266;52.340;4.962;2023-08-01T00:49:16;99774.91;;;17.37;80.57
36222;BME280;22266;52.340;4.962;2023-08-01T00:51:44;99767.84;;;17.36;80.78
36222;BME280;22266;52.340;4.962;2023-08-01T00:54:11;99762.09;;;17.32;80.62
36222;BME280;22266;52.340;4.962;2023-08-01T00:56:37;99766.44;;;17.33;80.89
36222;BME280;22266;52.340;4.962;2023-08-01T00:59:05;99758.56;;;17.32;80.97
36222;BME280;22266;52.340;4.962;2023-08-01T01:01:31;99758.56;;;17.32;80.97
36222;BME280;22266;52.340;4.962;2023-08-01T01:03:58;99747.97;;;17.30;80.92
36222;BME280;22266;52.340;4.962;2023-08-01T01:06:32;99755.84;;;17.32;80.95
36222;BME280;22266;52.340;4.962;2023-08-01T01:09:00;99746.06;;;17.30;81.07
36222;BME280;22266;52.340;4.962;2023-08-01T01:11:26;99741.44;;;17.31;80.83
36222;BME280;22266;52.340;4.962;2023-08-01T01:13:53;99739.25;;;17.28;80.85
36222;BME280;22266;52.340;4.962;2023-08-01T01:16:20;99741.16;;;17.27;81.16
36222;BME280;22266;52.340;4.962;2023-08-01T01:18:47;99742.78;;;17.28;81.35
36222;BME280;22266;52.340;4.962;2023-08-01T01:21:14;99746.59;;;17.27;80.96
36222;BME280;22266;52.340;4.962;2023-08-01T01:23:52;99739.50;;;17.26;80.81
36222;BME280;22266;52.340;4.962;2023-08-01T01:26:20;99740.56;;;17.25;81.02
36222;BME280;22266;52.340;4.962;2023-08-01T01:28:49;99747.69;;;17.26;81.25
36222;BME280;22266;52.340;4.962;2023-08-01T01:31:17;99742.22;;;17.26;81.34
36222;BME280;22266;52.340;4.962;2023-08-01T01:33:43;99749.31;;;17.27;81.11
36222;BME280;22266;52.340;4.962;2023-08-01T01:36:10;99742.22;;;17.26;81.45
36222;BME280;22266;52.340;4.962;2023-08-01T01:38:37;99741.16;;;17.27;81.35
36222;BME280;22266;52.340;4.962;2023-08-01T01:41:03;99744.97;;;17.26;81.19
36222;BME280;22266;52.340;4.962;2023-08-01T01:43:30;99741.16;;;17.27;81.38
36222;BME280;22266;52.340;4.962;2023-08-01T01:45:56;99736.50;;;17.28;81.37
36222;BME280;22266;52.340;4.962;2023-08-01T01:48:23;99737.34;;;17.28;81.33
36222;BME280;22266;52.340;4.962;2023-08-01T01:50:49;99731.06;;;17.28;81.27
36222;BME280;22266;52.340;4.962;2023-08-01T01:53:16;99734.88;;;17.27;81.09
36222;BME280;22266;52.340;4.962;2023-08-01T01:55:43;99735.97;;;17.26;80.87
36222;BME280;22266;52.340;4.962;2023-08-01T01:58:10;99738.44;;;17.27;80.77
36222;BME280;22266;52.340;4.962;2023-08-01T02:00:37;99739.50;;;17.26;80.85
36222;BME280;22266;52.340;4.962;2023-08-01T02:03:05;99739.50;;;17.26;80.66
36222;BME280;22266;52.340;4.962;2023-08-01T02:05:33;99740.56;;;17.25;80.87
36222;BME280;22266;52.340;4.962;2023-08-01T02:08:00;99738.13;;;17.24;81.15
36222;BME280;22266;52.340;4.962;2023-08-01T02:10:26;99735.13;;;17.25;81.27
36222;BME280;22266;52.340;4.962;2023-08-01T02:12:53;99727.81;;;17.26;80.69
36222;BME280;22266;52.340;4.962;2023-08-01T02:15:19;99723.72;;;17.28;80.83
36222;BME280;22266;52.340;4.962;2023-08-01T02:17:46;99723.50;;;17.30;80.45
36222;BME280;22266;52.340;4.962;2023-08-01T02:20:15;99718.03;;;17.30;80.27
36222;BME280;22266;52.340;4.962;2023-08-01T02:22:42;99716.97;;;17.31;79.77
36222;BME280;22266;52.340;4.962;2023-08-01T02:25:08;99721.81;;;17.29;79.59
36222;BME280;22266;52.340;4.962;2023-08-01T02:27:35;99712.84;;;17.28;79.30
36222;BME280;22266;52.340;4.962;2023-08-01T02:30:01;99714.22;;;17.31;78.83
36222;BME280;22266;52.340;4.962;2023-08-01T02:32:28;99717.50;;;17.33;78.47
36222;BME280;22266;52.340;4.962;2023-08-01T02:34:57;99709.09;;;17.35;78.57
36222;BME280;22266;52.340;4.962;2023-08-01T02:37:24;99711.00;;;17.34;78.09
36222;BME280;22266;52.340;4.962;2023-08-01T02:39:50;99720.78;;;17.35;78.31
36222;BME280;22266;52.340;4.962;2023-08-01T02:42:17;99715.34;;;17.35;78.26
36222;BME280;22266;52.340;4.962;2023-08-01T02:44:44;99705.78;;;17.33;78.16
36222;BME280;22266;52.340;4.962;2023-08-01T02:47:10;99712.88;;;17.34;78.23
36222;BME280;22266;52.340;4.962;2023-08-01T02:49:37;99718.31;;;17.34;78.24
36222;BME280;22266;52.340;4.962;2023-08-01T02:52:03;99721.03;;;17.34;78.06
36222;BME280;22266;52.340;4.962;2023-08-01T02:54:30;99728.38;;;17.33;78.10
36222;BME280;22266;52.340;4.962;2023-08-01T02:56:56;99715.59;;;17.34;78.13
36222;BME280;22266;52.340;4.962;2023-08-01T02:59:23;99712.88;;;17.34;78.07
36222;BME280;22266;52.340;4.962;2023-08-01T03:01:50;99712.88;;;17.34;78.59
36222;BME280;22266;52.340;4.962;2023-08-01T03:04:16;99721.59;;;17.30;78.54
36222;BME280;22266;52.340;4.962;2023-08-01T03:06:45;99719.66;;;17.31;78.41
36222;BME280;22266;52.340;4.962;2023-08-01T03:09:12;99715.31;;;17.30;78.60
36222;BME280;22266;52.340;4.962;2023-08-01T03:11:38;99713.66;;;17.29;78.36
36222;BME280;22266;52.340;4.962;2023-08-01T03:14:05;99711.22;;;17.27;78.47
36222;BME280;22266;52.340;4.962;2023-08-01T03:16:31;99711.22;;;17.27;78.65
36222;BME280;22266;52.340;4.962;2023-08-01T03:18:58;99717.75;;;17.26;78.74
36222;BME280;22266;52.340;4.962;2023-08-01T03:21:34;99714.75;;;17.23;78.92
36222;BME280;22266;52.340;4.962;2023-08-01T03:24:01;99716.66;;;17.22;79.07
36222;BME280;22266;52.340;4.962;2023-08-01T03:26:28;99709.56;;;17.21;79.09
36222;BME280;22266;52.340;4.962;2023-08-01T03:28:55;99712.03;;;17.23;79.60
36222;BME280;22266;52.340;4.962;2023-08-01T03:31:22;99710.66;;;17.20;79.37
36222;BME280;22266;52.340;4.962;2023-08-01T03:33:49;99707.38;;;17.18;79.94
36222;BME280;22266;52.340;4.962;2023-08-01T03:36:15;99709.53;;;17.16;79.69
36222;BME280;22266;52.340;4.962;2023-08-01T03:38:43;99708.72;;;17.16;79.84
36222;BME280;22266;52.340;4.962;2023-08-01T03:41:10;99715.78;;;17.17;80.05
36222;BME280;22266;52.340;4.962;2023-08-01T03:43:37;99718.25;;;17.18;79.87
36222;BME280;22266;52.340;4.962;2023-08-01T03:46:04;99711.44;;;17.16;79.79
36222;BME280;22266;52.340;4.962;2023-08-01T03:48:31;99719.09;;;17.19;80.09
36222;BME280;22266;52.340;4.962;2023-08-01T03:50:58;99718.56;;;17.22;79.72
36222;BME280;22266;52.340;4.962;2023-08-01T03:53:25;99711.22;;;17.22;80.02
36222;BME280;22266;52.340;4.962;2023-08-01T03:55:52;99710.13;;;17.23;79.82
36222;BME280;22266;52.340;4.962;2023-08-01T03:58:18;99712.03;;;17.23;79.98
36222;BME280;22266;52.340;4.962;2023-08-01T04:00:45;99719.91;;;17.24;79.74
36222;BME280;22266;52.340;4.962;2023-08-01T04:03:11;99721.00;;;17.23;79.86
36222;BME280;22266;52.340;4.962;2023-08-01T04:05:38;99717.19;;;17.24;80.16
36222;BME280;22266;52.340;4.962;2023-08-01T04:08:05;99719.91;;;17.24;80.00
36222;BME280;22266;52.340;4.962;2023-08-01T04:10:31;99715.56;;;17.23;80.39
36222;BME280;22266;52.340;4.962;2023-08-01T04:12:58;99719.91;;;17.24;80.12
36222;BME280;22266;52.340;4.962;2023-08-01T04:15:24;99714.47;;;17.24;80.26
36222;BME280;22266;52.340;4.962;2023-08-01T04:17:51;99717.19;;;17.24;80.23
36222;BME280;22266;52.340;4.962;2023-08-01T04:20:17;99718.56;;;17.27;80.30
36222;BME280;22266;52.340;4.962;2023-08-01T04:22:44;99715.28;;;17.25;80.24
36222;BME280;22266;52.340;4.962;2023-08-01T04:25:10;99713.13;;;17.22;80.47
36222;BME280;22266;52.340;4.962;2023-08-01T04:27:37;99724.25;;;17.20;80.35
36222;BME280;22266;52.340;4.962;2023-08-01T04:30:04;99715.53;;;17.18;80.31
36222;BME280;22266;52.340;4.962;2023-08-01T04:32:30;99713.06;;;17.17;80.80
36222;BME280;22266;52.340;4.962;2023-08-01T04:34:57;99714.44;;;17.14;81.38
36222;BME280;22266;52.340;4.962;2023-08-01T04:37:24;99712.78;;;17.13;82.01
36222;BME280;22266;52.340;4.962;2023-08-01T04:39:52;99712.53;;;17.10;82.28
36222;BME280;22266;52.340;4.962;2023-08-01T04:42:18;99713.34;;;17.10;82.81
36222;BME280;22266;52.340;4.962;2023-08-01T04:44:44;99719.00;;;17.09;82.83
36222;BME280;22266;52.340;4.962;2023-08-01T04:47:11;99722.81;;;17.02;83.06
36222;BME280;22266;52.340;4.962;2023-08-01T04:49:37;99722.50;;;16.99;83.55
36222;BME280;22266;52.340;4.962;2023-08-01T04:52:04;99712.72;;;16.98;83.72
36222;BME280;22266;52.340;4.962;2023-08-01T04:54:34;99715.16;;;16.94;83.32
36222;BME280;22266;52.340;4.962;2023-08-01T04:57:00;99720.28;;;16.91;83.70
36222;BME280;22266;52.340;4.962;2023-08-01T04:59:26;99719.72;;;16.89;83.81
36222;BME280;22266;52.340;4.962;2023-08-01T05:01:53;99720.81;;;16.88;83.72
36222;BME280;22266;52.340;4.962;2023-08-01T05:04:19;99718.09;;;16.88;84.25
36222;BME280;22266;52.340;4.962;2023-08-01T05:06:46;99720.28;;;16.91;84.11
36222;BME280;22266;52.340;4.962;2023-08-01T05:09:12;99727.38;;;16.92;84.16
36222;BME280;22266;52.340;4.962;2023-08-01T05:11:39;99728.75;;;16.94;83.91
36222;BME280;22266;52.340;4.962;2023-08-01T05:14:05;99730.38;;;16.95;84.08
36222;BME280;22266;52.340;4.962;2023-08-01T05:16:32;99720.28;;;16.91;84.02
36222;BME280;22266;52.340;4.962;2023-08-01T05:18:58;99721.13;;;16.91;84.17
36222;BME280;22266;52.340;4.962;2023-08-01T05:21:25;99724.13;;;16.95;84.28
36222;BME280;22266;52.340;4.962;2023-08-01T05:23:51;99725.22;;;16.94;84.05
36222;BME280;22266;52.340;4.962;2023-08-01T05:26:18;99715.69;;;16.91;83.99
36222;BME280;22266;52.340;4.962;2023-08-01T05:28:44;99719.22;;;16.92;84.31
36222;BME280;22266;52.340;4.962;2023-08-01T05:31:10;99716.75;;;16.90;83.90
36222;BME280;22266;52.340;4.962;2023-08-01T05:33:37;99720.03;;;16.92;83.93
36222;BME280;22266;52.340;4.962;2023-08-01T05:36:04;99728.19;;;16.92;83.80
36222;BME280;22266;52.340;4.962;2023-08-01T05:38:30;99728.69;;;16.89;83.63
36222;BME280;22266;52.340;4.962;2023-08-01T05:40:57;99722.44;;;16.89;83.85
36222;BME280;22266;52.340;4.962;2023-08-01T05:43:23;99729.25;;;16.86;83.41
36222;BME280;22266;52.340;4.962;2023-08-01T05:45:50;99735.19;;;16.83;83.58
36222;BME280;22266;52.340;4.962;2023-08-01T05:48:19;99736.00;;;16.84;83.73
36222;BME280;22266;52.340;4.962;2023-08-01T05:50:45;99740.63;;;16.83;83.75
36222;BME280;22266;52.340;4.962;2023-08-01T05:53:12;99746.38;;;16.87;83.74
36222;BME280;22266;52.340;4.962;2023-08-01T05:55:38;99744.47;;;16.87;83.58
36222;BME280;22266;52.340;4.962;2023-08-01T05:58:05;99747.72;;;16.89;83.09
36222;BME280;22266;52.340;4.962;2023-08-01T06:00:31;99750.50;;;16.94;83.27
36222;BME280;22266;52.340;4.962;2023-08-01T06:02:58;99751.03;;;16.96;83.03
36222;BME280;22266;52.340;4.962;2023-08-01T06:05:25;99750.22;;;16.96;82.90
36222;BME280;22266;52.340;4.962;2023-08-01T06:07:51;99750.50;;;16.94;82.97
36222;BME280;22266;52.340;4.962;2023-08-01T06:10:18;99751.56;;;16.93;82.50
36222;BME280;22266;52.340;4.962;2023-08-01T06:12:44;99754.84;;;16.95;82.60
36222;BME280;22266;52.340;4.962;2023-08-01T06:15:11;99757.56;;;16.95;82.59
36222;BME280;22266;52.340;4.962;2023-08-01T06:17:37;99763.53;;;16.97;82.30
36222;BME280;22266;52.340;4.962;2023-08-01T06:20:04;99764.59;;;16.91;81.94
36222;BME280;22266;52.340;4.962;2023-08-01T06:22:31;99774.16;;;16.94;82.40
36222;BME280;22266;52.340;4.962;2023-08-01T06:24:57;99776.06;;;16.98;81.85
36222;BME280;22266;52.340;4.962;2023-08-01T06:27:24;99772.00;;;17.01;81.67
36222;BME280;22266;52.340;4.962;2023-08-01T06:29:51;99778.00;;;17.03;81.41
36222;BME280;22266;52.340;4.962;2023-08-01T06:32:17;99770.94;;;17.02;80.92
36222;BME280;22266;52.340;4.962;2023-08-01T06:34:44;99764.13;;;17.04;80.62
36222;BME280;22266;52.340;4.962;2023-08-01T06:37:10;99771.25;;;17.11;80.69
36222;BME280;22266;52.340;4.962;2023-08-01T06:39:37;99770.72;;;17.14;80.15
36222;BME280;22266;52.340;4.962;2023-08-01T06:42:03;99771.84;;;17.18;80.20
36222;BME280;22266;52.340;4.962;2023-08-01T06:44:30;99772.94;;;17.22;79.81
36222;BME280;22266;52.340;4.962;2023-08-01T06:46:57;99771.03;;;17.22;79.87
36222;BME280;22266;52.340;4.962;2023-08-01T06:49:23;99771.84;;;17.23;79.12
36222;BME280;22266;52.340;4.962;2023-08-01T06:51:50;99772.94;;;17.22;78.81
36222;BME280;22266;52.340;4.962;2023-08-01T06:54:16;99769.38;;;17.21;78.91
36222;BME280;22266;52.340;4.962;2023-08-01T06:56:43;99766.13;;;17.19;79.01
36222;BME280;22266;52.340;4.962;2023-08-01T06:59:14;99774.00;;;17.21;78.66
36222;BME280;22266;52.340;4.962;2023-08-01T07:01:41;99780.31;;;17.26;78.69
36222;BME280;22266;52.340;4.962;2023-08-01T07:04:10;99782.97;;;17.21;78.52
36222;BME280;22266;52.340;4.962;2023-08-01T07:06:37;99775.91;;;17.20;78.64
36222;BME280;22266;52.340;4.962;2023-08-01T07:09:04;99780.03;;;17.23;78.55
36222;BME280;22266;52.340;4.962;2023-08-01T07:11:31;99781.38;;;17.25;78.87
36222;BME280;22266;52.340;4.962;2023-08-01T07:13:58;99784.66;;;17.27;78.98
36222;BME280;22266;52.340;4.962;2023-08-01T07:16:24;99786.81;;;17.25;79.19
36222;BME280;22266;52.340;4.962;2023-08-01T07:18:51;99784.66;;;17.27;79.09
36222;BME280;22266;52.340;4.962;2023-08-01T07:21:17;99787.38;;;17.22;79.36
36222;BME280;22266;52.340;4.962;2023-08-01T07:23:44;99788.69;;;17.20;79.30
36222;BME280;22266;52.340;4.962;2023-08-01T07:26:11;99787.66;;;17.26;79.22
36222;BME280;22266;52.340;4.962;2023-08-01T07:28:41;99795.56;;;17.33;79.28
36222;BME280;22266;52.340;4.962;2023-08-01T07:31:09;99789.31;;;17.37;79.16
36222;BME280;22266;52.340;4.962;2023-08-01T07:33:36;99792.84;;;17.38;78.47
36222;BME280;22266;52.340;4.962;2023-08-01T07:36:03;99794.22;;;17.35;78.38
36222;BME280;22266;52.340;4.962;2023-08-01T07:38:30;99793.94;;;17.37;78.36
36222;BME280;22266;52.340;4.962;2023-08-01T07:41:04;99807.53;;;17.32;78.26
36222;BME280;22266;52.340;4.962;2023-08-01T07:43:30;99807.22;;;17.28;78.73
36222;BME280;22266;52.340;4.962;2023-08-01T07:45:57;99803.69;;;17.22;78.94
36222;BME280;22266;52.340;4.962;2023-08-01T07:48:24;99806.66;;;17.21;79.36
36222;BME280;22266;52.340;4.962;2023-08-01T07:50:51;99815.63;;;17.21;79.52
36222;BME280;22266;52.340;4.962;2023-08-01T07:53:18;99807.22;;;17.23;79.80
36222;BME280;22266;52.340;4.962;2023-08-01T07:55:44;99811.03;;;17.27;80.11
36222;BME280;22266;52.340;4.962;2023-08-01T07:58:11;99822.44;;;17.24;80.00
36222;BME280;22266;52.340;4.962;2023-08-01T08:00:38;99818.31;;;17.16;80.03
36222;BME280;22266;52.340;4.962;2023-08-01T08:03:04;99823.22;;;17.19;80.12
36222;BME280;22266;52.340;4.962;2023-08-01T08:05:32;99824.63;;;17.22;80.49
36222;BME280;22266;52.340;4.962;2023-08-01T08:07:58;99824.31;;;17.18;80.61
36222;BME280;22266;52.340;4.962;2023-08-01T08:10:25;99819.69;;;17.19;80.27
36222;BME280;22266;52.340;4.962;2023-08-01T08:12:51;99819.19;;;17.27;80.29
36222;BME280;22266;52.340;4.962;2023-08-01T08:15:19;99815.72;;;17.37;80.27
36222;BME280;22266;52.340;4.962;2023-08-01T08:17:46;99820.94;;;17.43;80.17
36222;BME280;22266;52.340;4.962;2023-08-01T08:20:13;99823.13;;;17.51;80.32
36222;BME280;22266;52.340;4.962;2023-08-01T08:22:39;99826.09;;;17.50;79.96
36222;BME280;22266;52.340;4.962;2023-08-01T08:25:06;99824.78;;;17.52;80.07
36222;BME280;22266;52.340;4.962;2023-08-01T08:27:32;99828.59;;;17.51;79.88
36222;BME280;22266;52.340;4.962;2023-08-01T08:29:59;99825.59;;;17.53;79.73
36222;BME280;22266;52.340;4.962;2023-08-01T08:32:25;99822.56;;;17.49;79.91
36222;BME280;22266;52.340;4.962;2023-08-01T08:34:52;99835.63;;;17.47;80.02
36222;BME280;22266;52.340;4.962;2023-08-01T08:37:18;99825.78;;;17.41;79.59
36222;BME280;22266;52.340;4.962;2023-08-01T08:39:46;99837.22;;;17.38;79.63
36222;BME280;22266;52.340;4.962;2023-08-01T08:42:13;99844.31;;;17.39;79.83
36222;BME280;22266;52.340;4.962;2023-08-01T08:44:43;99835.34;;;17.44;79.85
36222;BME280;22266;52.340;4.962;2023-08-01T08:47:11;99844.34;;;17.49;79.55
36222;BME280;22266;52.340;4.962;2023-08-01T08:49:39;99834.31;;;17.55;79.05
36222;BME280;22266;52.340;4.962;2023-08-01T08:52:06;99840.56;;;17.50;78.52
36222;BME280;22266;52.340;4.962;2023-08-01T08:54:33;99851.66;;;17.44;78.45
36222;BME280;22266;52.340;4.962;2023-08-01T08:57:05;99854.06;;;17.35;78.02
36222;BME280;22266;52.340;4.962;2023-08-01T08:59:33;99845.38;;;17.38;77.95
36222;BME280;22266;52.340;4.962;2023-08-01T09:01:59;99853.06;;;17.46;77.76
36222;BME280;22266;52.340;4.962;2023-08-01T09:04:27;99860.13;;;17.47;76.75
36222;BME280;22266;52.340;4.962;2023-08-01T09:07:07;99854.72;;;17.58;76.62
36222;BME280;22266;52.340;4.962;2023-08-01T09:09:35;99849.88;;;17.65;75.88
36222;BME280;22266;52.340;4.962;2023-08-01T09:12:02;99857.50;;;17.68;75.26
36222;BME280;22266;52.340;4.962;2023-08-01T09:14:28;99862.47;;;17.76;75.42
36222;BME280;22266;52.340;4.962;2023-08-01T09:16:55;99863.59;;;17.85;74.94
36222;BME280;22266;52.340;4.962;2023-08-01T09:19:24;99865.50;;;17.85;74.50
36222;BME280;22266;52.340;4.962;2023-08-01T09:21:51;99863.34;;;17.87;74.48
36222;BME280;22266;52.340;4.962;2023-08-01T09:24:19;99871.53;;;17.97;74.04
36222;BME280;22266;52.340;4.962;2023-08-01T09:26:47;99865.81;;;17.98;73.96
36222;BME280;22266;52.340;4.962;2023-08-01T09:29:16;99878.91;;;18.01;73.93
36222;BME280;22266;52.340;4.962;2023-08-01T09:31:43;99871.81;;;18.00;73.74
36222;BME280;22266;52.340;4.962;2023-08-01T09:34:22;99886.03;;;18.08;74.31
36222;BME280;22266;52.340;4.962;2023-08-01T09:36:50;99884.63;;;18.00;73.85
36222;BME280;22266;52.340;4.962;2023-08-01T09:39:18;99888.38;;;17.89;74.01
36222;BME280;22266;52.340;4.962;2023-08-01T09:41:55;99886.22;;;17.91;74.13
36222;BME280;22266;52.340;4.962;2023-08-01T09:44:22;99883.00;;;18.04;74.41
36222;BME280;22266;52.340;4.962;2023-08-01T09:47:05;99879.47;;;18.14;73.51
36222;BME280;22266;52.340;4.962;2023-08-01T09:49:35;99894.78;;;18.30;73.09
36222;BME280;22266;52.340;4.962;2023-08-01T09:52:03;99879.81;;;18.33;72.52
36222;BME280;22266;52.340;4.962;2023-08-01T09:54:29;99884.69;;;18.25;72.23
36222;BME280;22266;52.340;4.962;2023-08-01T09:56:56;99885.78;;;18.24;72.33
36222;BME280;22266;52.340;4.962;2023-08-01T09:59:24;99886.66;;;18.35;72.53
36222;BME280;22266;52.340;4.962;2023-08-01T10:01:53;99893.19;;;18.39;72.38
36222;BME280;22266;52.340;4.962;2023-08-01T10:04:28;99901.91;;;18.31;72.31
36222;BME280;22266;52.340;4.962;2023-08-01T10:07:00;99902.72;;;18.37;72.79
36222;BME280;22266;52.340;4.962;2023-08-01T10:09:30;99900.56;;;18.44;72.67
36222;BME280;22266;52.340;4.962;2023-08-01T10:11:57;99902.75;;;18.52;72.24
36222;BME280;22266;52.340;4.962;2023-08-01T10:14:25;99907.66;;;18.50;71.19
36222;BME280;22266;52.340;4.962;2023-08-01T10:16:53;99906.59;;;18.61;71.15
36222;BME280;22266;52.340;4.962;2023-08-01T10:19:21;99911.47;;;18.59;71.00
36222;BME280;22266;52.340;4.962;2023-08-01T10:21:48;99910.69;;;18.64;70.81
36222;BME280;22266;52.340;4.962;2023-08-01T10:24:16;99910.69;;;18.64;70.23
36222;BME280;22266;52.340;4.962;2023-08-01T10:26:46;99921.84;;;18.62;69.79
36222;BME280;22266;52.340;4.962;2023-08-01T10:29:13;99916.66;;;18.56;69.68
36222;BME280;22266;52.340;4.962;2023-08-01T10:31:50;99917.19;;;18.47;69.53
36222;BME280;22266;52.340;4.962;2023-08-01T10:34:17;99925.63;;;18.41;69.59
36222;BME280;22266;52.340;4.962;2023-08-01T10:36:53;99917.97;;;18.33;69.88
36222;BME280;22266;52.340;4.962;2023-08-01T10:39:25;99926.94;;;18.33;70.27
36222;BME280;22266;52.340;4.962;2023-08-01T10:41:59;99923.13;;;18.34;70.81
36222;BME280;22266;52.340;4.962;2023-08-01T10:44:26;99922.88;;;18.41;71.02
36222;BME280;22266;52.340;4.962;2023-08-01T10:46:58;99932.44;;;18.43;71.41
36222;BME280;22266;52.340;4.962;2023-08-01T10:52:22;99935.69;;;18.40;70.14
36222;BME280;22266;52.340;4.962;2023-08-01T10:57:29;99945.75;;;18.35;70.08
36222;BME280;22266;52.340;4.962;2023-08-01T10:59:59;99954.44;;;18.26;71.11
36222;BME280;22266;52.340;4.962;2023-08-01T11:02:28;99962.59;;;18.21;71.86
36222;BME280;22266;52.340;4.962;2023-08-01T11:05:06;99963.69;;;18.15;72.10
36222;BME280;22266;52.340;4.962;2023-08-01T11:07:34;99957.94;;;18.17;72.64
36222;BME280;22266;52.340;4.962;2023-08-01T11:12:33;99969.59;;;18.02;74.09
36222;BME280;22266;52.340;4.962;2023-08-01T11:15:00;99972.50;;;17.90;75.32
36222;BME280;22266;52.340;4.962;2023-08-01T11:17:27;99963.50;;;17.85;75.99
36222;BME280;22266;52.340;4.962;2023-08-01T11:20:04;99968.44;;;17.88;76.37
36222;BME280;22266;52.340;4.962;2023-08-01T11:22:31;99973.06;;;17.87;76.95
36222;BME280;22266;52.340;4.962;2023-08-01T11:24:58;99970.34;;;17.87;77.43
36222;BME280;22266;52.340;4.962;2023-08-01T11:27:26;99968.72;;;17.91;77.57
36222;BME280;22266;52.340;4.962;2023-08-01T11:29:53;99964.63;;;17.94;77.73
36222;BME280;22266;52.340;4.962;2023-08-01T11:32:20;99968.75;;;17.96;77.83
36222;BME280;22266;52.340;4.962;2023-08-01T11:34:47;99979.13;;;17.99;77.79
36222;BME280;22266;52.340;4.962;2023-08-01T11:37:18;99973.13;;;18.02;77.63
36222;BME280;22266;52.340;4.962;2023-08-01T11:39:47;99968.28;;;18.15;77.35
36222;BME280;22266;52.340;4.962;2023-08-01T11:42:16;99967.00;;;18.27;77.07
36222;BME280;22266;52.340;4.962;2023-08-01T11:44:43;99956.66;;;18.35;76.88
36222;BME280;22266;52.340;4.962;2023-08-01T11:47:17;99971.41;;;18.44;75.94
36222;BME280;22266;52.340;4.962;2023-08-01T11:49:49;99975.25;;;18.48;74.83
36222;BME280;22266;52.340;4.962;2023-08-01T11:52:26;99977.16;;;18.47;73.65
36222;BME280;22266;52.340;4.962;2023-08-01T11:54:53;99980.41;;;18.44;72.86
36222;BME280;22266;52.340;4.962;2023-08-01T11:57:24;99984.75;;;18.40;72.78
36222;BME280;22266;52.340;4.962;2023-08-01T11:59:52;99967.59;;;18.40;72.41
36222;BME280;22266;52.340;4.962;2023-08-01T12:02:27;99983.94;;;18.40;72.37
36222;BME280;22266;52.340;4.962;2023-08-01T12:04:54;99989.63;;;18.33;71.72
36222;BME280;22266;52.340;4.962;2023-08-01T12:07:21;99984.44;;;18.32;71.31
36222;BME280;22266;52.340;4.962;2023-08-01T12:09:57;99990.66;;;18.27;70.68
36222;BME280;22266;52.340;4.962;2023-08-01T12:12:28;99986.34;;;18.31;71.06
36222;BME280;22266;52.340;4.962;2023-08-01T12:14:55;100000.28;;;18.40;70.98
36222;BME280;22266;52.340;4.962;2023-08-01T12:17:22;99993.50;;;18.47;70.48
36222;BME280;22266;52.340;4.962;2023-08-01T12:19:49;99999.78;;;18.58;70.10
36222;BME280;22266;52.340;4.962;2023-08-01T12:22:15;100002.22;;;18.54;68.85
36222;BME280;22266;52.340;4.962;2023-08-01T12:24:42;100005.53;;;18.57;68.74
36222;BME280;22266;52.340;4.962;2023-08-01T12:27:09;100002.50;;;18.58;68.35
36222;BME280;22266;52.340;4.962;2023-08-01T12:29:36;99999.25;;;18.61;67.34
36222;BME280;22266;52.340;4.962;2023-08-01T12:32:03;100006.91;;;18.64;65.91
36222;BME280;22266;52.340;4.962;2023-08-01T12:34:29;100002.00;;;18.66;66.18
36222;BME280;22266;52.340;4.962;2023-08-01T12:36:56;100007.75;;;18.70;66.26
36222;BME280;22266;52.340;4.962;2023-08-01T12:39:22;100004.75;;;18.71;66.27
36222;BME280;22266;52.340;4.962;2023-08-01T12:41:53;100014.34;;;18.84;66.47
36222;BME280;22266;52.340;4.962;2023-08-01T12:44:22;100019.00;;;18.89;66.82
36222;BME280;22266;52.340;4.962;2023-08-01T12:46:48;100021.44;;;18.85;67.22
36222;BME280;22266;52.340;4.962;2023-08-01T12:49:15;100025.25;;;18.84;67.84
36222;BME280;22266;52.340;4.962;2023-08-01T12:51:42;100015.94;;;18.75;67.46
36222;BME280;22266;52.340;4.962;2023-08-01T12:54:08;100020.81;;;18.68;67.06
36222;BME280;22266;52.340;4.962;2023-08-01T12:56:35;100020.28;;;18.71;67.35
36222;BME280;22266;52.340;4.962;2023-08-01T12:59:02;100012.97;;;18.82;67.59
36222;BME280;22266;52.340;4.962;2023-08-01T13:01:28;100015.75;;;18.97;67.99
36222;BME280;22266;52.340;4.962;2023-08-01T13:03:55;100022.28;;;19.06;67.92
36222;BME280;22266;52.340;4.962;2023-08-01T13:06:21;100012.72;;;19.03;67.87
36222;BME280;22266;52.340;4.962;2023-08-01T13:08:48;100033.97;;;18.91;68.91